Time;durP1;ratioP1;P1;durP2;ratioP2;P2;SDS_P1;SDS_P2;PMS_P1;PMS_P2;Temp;Humidity;BMP_temperature;BMP_pressure;BME280_temperature;BME280_humidity;BME280_pressure;Samples;Min_cycle;Max_cycle;Signal;HPM_P1;HPM_P2
2024/01/23 00:00:11;;;;;;;1.95;1.15;;;;;;;6.74;100.00;99106.91;4189692;28;20204;-53
2024/01/23 00:02:13;;;;;;;1.00;1.00;;;;;;;6.74;100.00;99102.31;4191377;28;20309;-51
2024/01/23 00:04:15;;;;;;;0.77;0.77;;;;;;;6.67;100.00;99112.38;4191271;28;20210;-50
2024/01/23 00:06:18;;;;;;;1.60;1.50;;;;;;;6.60;100.00;99110.69;4171800;28;20305;-50
2024/01/23 00:08:19;;;;;;;8.25;2.08;;;;;;;6.62;100.00;99114.06;4186093;28;20242;-52
2024/01/23 00:10:22;;;;;;;1.27;1.13;;;;;;;6.59;100.00;99119.88;4187376;28;20211;-52
2024/01/23 00:12:25;;;;;;;4.40;1.35;;;;;;;6.67;100.00;99115.09;4182408;28;20246;-50
2024/01/23 00:14:27;;;;;;;3.80;1.38;;;;;;;6.58;100.00;99124.50;4188948;28;20239;-50
2024/01/23 00:16:29;;;;;;;6.63;1.40;;;;;;;6.59;100.00;99128.03;4182166;28;20219;-50
2024/01/23 00:18:30;;;;;;;0.73;0.73;;;;;;;6.57;100.00;99127.44;4188114;28;20278;-51
2024/01/23 00:20:33;;;;;;;6.28;1.85;;;;;;;6.61;100.00;99123.22;4187327;28;20242;-50
2024/01/23 00:22:34;;;;;;;1.00;1.00;;;;;;;6.56;100.00;99131.19;4182105;28;20223;-51
2024/01/23 00:24:36;;;;;;;1.63;1.52;;;;;;;6.61;100.00;99118.63;4189949;28;20210;-52
2024/01/23 00:26:38;;;;;;;1.70;1.27;;;;;;;6.61;100.00;99123.22;4183705;28;20859;-49
2024/01/23 00:28:39;;;;;;;5.97;2.58;;;;;;;6.55;100.00;99121.38;4185389;28;20307;-50
2024/01/23 00:30:41;;;;;;;1.67;1.65;;;;;;;6.57;100.00;99127.44;4183307;28;20848;-50
2024/01/23 00:32:43;;;;;;;9.23;2.10;;;;;;;6.59;100.00;99130.78;4184244;28;20239;-50
2024/01/23 00:34:45;;;;;;;8.25;1.30;;;;;;;6.60;100.00;99132.44;4193379;28;20219;-53
2024/01/23 00:36:46;;;;;;;2.25;1.00;;;;;;;6.58;100.00;99129.09;4192292;28;20731;-52
2024/01/23 00:38:48;;;;;;;4.45;1.02;;;;;;;6.58;100.00;99129.09;4188082;28;20279;-50
2024/01/23 00:40:50;;;;;;;7.85;1.23;;;;;;;6.56;100.00;99136.63;4190841;28;20207;-49
2024/01/23 00:42:52;;;;;;;1.52;0.90;;;;;;;6.58;100.00;99129.09;4193584;28;20239;-50
2024/01/23 00:44:54;;;;;;;1.50;1.40;;;;;;;6.57;100.00;99135.59;4204996;28;20269;-50
2024/01/23 00:46:56;;;;;;;1.00;0.90;;;;;;;6.56;100.00;99142.06;4204722;28;20235;-51
2024/01/23 00:48:58;;;;;;;2.00;1.17;;;;;;;6.61;100.00;99139.53;4194200;28;20231;-52
2024/01/23 00:50:59;;;;;;;1.02;1.02;;;;;;;6.63;100.00;99153.78;4197481;28;20677;-52
2024/01/23 00:53:01;;;;;;;0.80;0.80;;;;;;;6.63;100.00;99156.50;4170819;28;20316;-52
2024/01/23 00:55:04;;;;;;;2.03;1.92;;;;;;;6.68;100.00;99151.28;4192603;28;20587;-50
2024/01/23 00:57:06;;;;;;;7.60;2.13;;;;;;;6.68;100.00;99152.09;4187428;28;20242;-51
2024/01/23 00:59:09;;;;;;;9.20;1.25;;;;;;;6.67;100.00;99157.75;4192795;28;20631;-51
2024/01/23 01:01:11;;;;;;;8.68;2.53;;;;;;;6.66;100.00;99158.78;4187878;28;20644;-51
2024/01/23 01:03:13;;;;;;;2.78;2.58;;;;;;;6.64;100.00;99160.88;4205292;28;20226;-51
2024/01/23 01:05:16;;;;;;;8.32;1.00;;;;;;;6.57;100.00;99154.63;4188240;28;20295;-50
2024/01/23 01:07:17;;;;;;;2.55;1.27;;;;;;;6.53;100.00;99164.22;4192898;28;20281;-50
2024/01/23 01:09:19;;;;;;;0.82;0.82;;;;;;;6.57;100.00;99165.50;4188991;28;20227;-50
2024/01/23 01:11:21;;;;;;;3.83;1.50;;;;;;;6.58;100.00;99165.28;4189797;28;20211;-50
2024/01/23 01:13:23;;;;;;;3.13;1.45;;;;;;;6.56;100.00;99177.41;4189750;28;20755;-52
2024/01/23 01:15:25;;;;;;;1.05;1.05;;;;;;;6.63;100.00;99180.97;4202923;28;20211;-50
2024/01/23 01:17:27;;;;;;;1.90;1.00;;;;;;;6.61;100.00;99172.16;4187795;28;20207;-53
2024/01/23 01:19:28;;;;;;;1.20;1.20;;;;;;;6.61;100.00;99183.91;4189661;28;20301;-51
2024/01/23 01:21:30;;;;;;;10.32;1.60;;;;;;;6.60;100.00;99178.66;4180077;28;20218;-50
2024/01/23 01:23:32;;;;;;;0.85;0.85;;;;;;;6.54;100.00;99201.25;4205854;28;20668;-52
2024/01/23 01:25:34;;;;;;;4.10;2.33;;;;;;;6.61;100.00;99189.34;4193490;28;20207;-50
2024/01/23 01:27:36;;;;;;;1.67;1.58;;;;;;;6.58;100.00;99184.31;4188200;28;20211;-52
2024/01/23 01:29:37;;;;;;;1.75;1.20;;;;;;;6.57;100.00;99179.91;4188638;28;20223;-51
2024/01/23 01:31:39;;;;;;;1.80;1.52;;;;;;;6.56;100.00;99191.00;4186871;28;20215;-53
2024/01/23 01:33:44;;;;;;;3.83;1.95;;;;;;;6.55;100.00;99190.16;4189304;28;20249;-51
2024/01/23 01:35:46;;;;;;;1.33;1.23;;;;;;;6.52;100.00;99190.59;4199778;28;20212;-51
2024/01/23 01:37:48;;;;;;;0.90;0.90;;;;;;;6.58;100.00;99188.91;4192809;28;20215;-53
2024/01/23 01:39:49;;;;;;;1.17;1.02;;;;;;;6.56;100.00;99191.84;4196953;28;20347;-50
2024/01/23 01:41:52;;;;;;;1.05;1.05;;;;;;;6.57;100.00;99177.19;4194030;28;20226;-50
2024/01/23 01:43:54;;;;;;;1.98;1.38;;;;;;;6.58;100.00;99186.19;4193286;28;20260;-51
2024/01/23 01:46:17;;;;;;;1.95;1.25;;;;;;;6.59;100.00;99188.72;4203684;28;20301;-56
2024/01/23 01:48:19;;;;;;;1.60;1.50;;;;;;;6.50;100.00;99208.97;4193256;28;20235;-50
2024/01/23 01:50:21;;;;;;;5.95;1.23;;;;;;;6.58;100.00;99210.66;4186829;28;20238;-53
2024/01/23 01:52:23;;;;;;;7.13;2.47;;;;;;;6.61;100.00;99199.34;4201427;28;20230;-51
2024/01/23 01:54:26;;;;;;;0.82;0.82;;;;;;;6.49;100.00;99198.31;4185416;28;20208;-51
2024/01/23 01:56:29;;;;;;;3.13;1.92;;;;;;;6.54;100.00;99201.25;4202719;28;20258;-51
2024/01/23 01:58:32;;;;;;;1.30;1.25;;;;;;;6.50;100.00;99208.16;4190561;28;20203;-52
2024/01/23 02:00:33;;;;;;;2.45;2.25;;;;;;;6.43;100.00;99197.25;4181728;28;20754;-52
2024/01/23 02:02:40;;;;;;;11.85;2.00;;;;;;;6.36;100.00;99193.69;4186163;28;20869;-52
2024/01/23 02:04:42;;;;;;;3.03;2.45;;;;;;;6.38;100.00;99197.06;4191029;28;20913;-53
2024/01/23 02:06:43;;;;;;;4.25;2.22;;;;;;;6.32;100.00;99207.91;4191084;28;20229;-50
2024/01/23 02:08:47;;;;;;;4.15;1.10;;;;;;;6.30;100.00;99199.13;4184593;28;20224;-52
2024/01/23 02:10:49;;;;;;;5.57;1.80;;;;;;;6.23;100.00;99211.88;4190655;28;20211;-51
2024/01/23 02:12:51;;;;;;;1.27;1.17;;;;;;;6.20;100.00;99199.53;4185344;28;20254;-51
2024/01/23 02:14:52;;;;;;;1.45;1.35;;;;;;;6.18;100.00;99214.34;4190283;28;20217;-54
2024/01/23 02:16:54;;;;;;;6.10;2.90;;;;;;;6.17;100.00;99207.25;4190700;28;20209;-51
2024/01/23 02:18:56;;;;;;;5.38;1.67;;;;;;;6.09;100.00;99204.72;4189383;28;20199;-50
2024/01/23 02:20:58;;;;;;;6.22;1.08;;;;;;;6.09;100.00;99196.59;4201614;28;20576;-51
2024/01/23 02:22:59;;;;;;;10.60;1.23;;;;;;;6.06;100.00;99205.13;4189639;28;20289;-55
2024/01/23 02:25:01;;;;;;;5.63;1.67;;;;;;;6.04;100.00;99201.78;4192242;28;20213;-54
2024/01/23 02:27:03;;;;;;;1.35;1.00;;;;;;;6.04;100.00;99207.22;4200685;28;20198;-51
2024/01/23 02:29:05;;;;;;;6.93;1.20;;;;;;;6.00;100.00;99200.50;4188650;28;20255;-52
2024/01/23 02:31:07;;;;;;;1.98;1.65;;;;;;;5.98;100.00;99208.03;4187720;28;20542;-50
2024/01/23 02:33:09;;;;;;;13.13;1.48;;;;;;;5.99;100.00;99218.69;4201668;28;20231;-53
2024/01/23 02:35:11;;;;;;;1.40;1.33;;;;;;;5.99;100.00;99226.00;4191374;28;20216;-54
2024/01/23 02:37:13;;;;;;;5.97;3.53;;;;;;;5.94;100.00;99220.31;4202785;28;20202;-51
2024/01/23 02:39:14;;;;;;;3.65;2.38;;;;;;;5.98;100.00;99224.31;4186094;28;20249;-51
2024/01/23 02:41:16;;;;;;;7.03;2.25;;;;;;;5.96;100.00;99220.97;4184771;28;20207;-51
2024/01/23 02:43:19;;;;;;;2.17;1.35;;;;;;;5.94;100.00;99217.63;4169674;28;20225;-51
2024/01/23 02:45:22;;;;;;;5.40;1.48;;;;;;;5.92;100.00;99209.69;4195027;28;20693;-52
2024/01/23 02:47:24;;;;;;;1.05;0.95;;;;;;;5.92;100.00;99209.69;4188742;28;20278;-52
2024/01/23 02:49:26;;;;;;;1.60;1.45;;;;;;;5.91;100.00;99223.47;4186061;28;20273;-50
2024/01/23 02:51:28;;;;;;;2.03;1.92;;;;;;;5.83;100.00;99229.09;4204301;28;20233;-51
2024/01/23 02:53:29;;;;;;;1.10;1.10;;;;;;;5.87;100.00;99246.63;4192248;28;20257;-52
2024/01/23 02:55:31;;;;;;;2.38;1.80;;;;;;;5.83;100.00;99237.22;4193004;28;20215;-52
2024/01/23 02:57:33;;;;;;;6.18;1.38;;;;;;;5.81;100.00;99239.28;4190461;28;20291;-52
2024/01/23 02:59:35;;;;;;;8.02;1.20;;;;;;;5.80;100.00;99243.03;4183706;28;20254;-51
2024/01/23 03:01:36;;;;;;;11.55;2.67;;;;;;;5.81;100.00;99244.72;4192172;28;20208;-50
2024/01/23 03:03:38;;;;;;;4.45;2.97;;;;;;;5.79;100.00;99238.63;4175642;28;20645;-51
2024/01/23 03:05:40;;;;;;;8.13;2.72;;;;;;;5.83;100.00;99258.94;4191305;28;20207;-51
2024/01/23 03:07:42;;;;;;;2.30;1.58;;;;;;;5.87;100.00;99261.06;4187260;28;20204;-51
2024/01/23 03:09:44;;;;;;;5.95;3.03;;;;;;;5.89;100.00;99269.00;4186006;28;20254;-52
2024/01/23 03:11:45;;;;;;;2.72;1.98;;;;;;;5.87;100.00;99277.34;4184219;28;20207;-52
2024/01/23 03:13:47;;;;;;;1.17;1.17;;;;;;;5.93;100.00;99267.53;4186832;28;20255;-50
2024/01/23 03:15:52;;;;;;;1.85;1.77;;;;;;;5.87;100.00;99273.78;4187134;28;20807;-52
2024/01/23 03:17:53;;;;;;;2.92;1.95;;;;;;;5.86;100.00;99280.25;4184884;28;20203;-51
2024/01/23 03:19:55;;;;;;;9.23;2.35;;;;;;;5.84;100.00;99272.31;4186228;28;20200;-52
2024/01/23 03:21:57;;;;;;;1.67;1.52;;;;;;;5.87;100.00;99276.50;4184476;28;20219;-51
2024/01/23 03:23:59;;;;;;;9.95;2.17;;;;;;;5.88;100.00;99283.63;4184114;28;20214;-51
2024/01/23 03:26:00;;;;;;;12.15;1.50;;;;;;;5.84;100.00;99299.47;4175595;28;20757;-53
2024/01/23 03:28:02;;;;;;;1.15;1.10;;;;;;;5.87;100.00;99309.09;4190399;28;20210;-50
2024/01/23 03:30:05;;;;;;;2.25;1.50;;;;;;;5.95;100.00;99311.66;4191871;28;20227;-51
2024/01/23 03:32:07;;;;;;;3.78;2.33;;;;;;;5.90;100.00;99309.53;4188795;28;20730;-55
2024/01/23 03:34:09;;;;;;;3.42;1.75;;;;;;;5.93;100.00;99302.84;4181795;28;20208;-53
2024/01/23 03:36:11;;;;;;;11.25;3.28;;;;;;;5.98;100.00;99322.97;4185602;28;20283;-53
2024/01/23 03:38:13;;;;;;;8.10;2.72;;;;;;;5.95;100.00;99322.53;4188425;28;20215;-51
2024/01/23 03:40:15;;;;;;;10.15;2.92;;;;;;;5.88;100.00;99318.94;4189399;28;20617;-50
2024/01/23 03:42:16;;;;;;;1.70;1.60;;;;;;;5.89;100.00;99307.84;4201590;28;20223;-53
2024/01/23 03:44:20;;;;;;;12.23;2.35;;;;;;;5.90;100.00;99320.38;4188300;28;20260;-50
2024/01/23 03:46:22;;;;;;;3.20;1.10;;;;;;;5.86;100.00;99323.72;4184094;28;20640;-51
2024/01/23 03:48:24;;;;;;;4.85;1.50;;;;;;;5.89;100.00;99328.75;4186905;28;20207;-51
2024/01/23 03:50:26;;;;;;;4.70;1.20;;;;;;;5.83;100.00;99335.00;4189798;28;20223;-51
2024/01/23 03:52:28;;;;;;;3.03;1.23;;;;;;;5.88;100.00;99329.81;4190368;28;20755;-51
2024/01/23 03:54:29;;;;;;;2.38;1.63;;;;;;;5.84;100.00;99336.66;4186093;28;20215;-51
2024/01/23 03:56:31;;;;;;;4.13;1.42;;;;;;;5.83;100.00;99329.56;4184618;28;20214;-52
2024/01/23 03:58:33;;;;;;;4.25;1.58;;;;;;;5.78;100.00;99332.84;4185389;28;20611;-50
2024/01/23 04:00:35;;;;;;;1.15;1.15;;;;;;;5.87;100.00;99347.09;4201874;28;20217;-50
2024/01/23 04:02:37;;;;;;;2.58;1.63;;;;;;;5.88;100.00;99356.97;4184994;28;20597;-51
2024/01/23 04:04:39;;;;;;;1.77;1.55;;;;;;;5.82;100.00;99349.59;4186386;28;20208;-50
2024/01/23 04:06:40;;;;;;;7.43;2.25;;;;;;;5.84;100.00;99352.97;4189297;28;20238;-51
2024/01/23 04:08:43;;;;;;;1.27;1.27;;;;;;;5.77;100.00;99357.47;4191349;28;20199;-51
2024/01/23 04:10:45;;;;;;;7.05;2.17;;;;;;;5.78;100.00;99354.56;4206066;28;20567;-51
2024/01/23 04:12:46;;;;;;;7.75;1.67;;;;;;;5.77;100.00;99360.19;4192296;28;20227;-53
2024/01/23 04:14:48;;;;;;;2.03;1.80;;;;;;;5.69;100.00;99377.47;4186481;28;20207;-50
2024/01/23 04:16:50;;;;;;;3.30;1.45;;;;;;;5.68;100.00;99375.78;4206168;28;20656;-50
2024/01/23 04:18:54;;;;;;;4.78;1.50;;;;;;;5.63;100.00;99393.72;4193012;28;20660;-52
2024/01/23 04:20:58;;;;;;;1.65;1.23;;;;;;;5.62;100.00;99386.63;4190808;28;20203;-50
2024/01/23 04:23:00;;;;;;;1.10;1.10;;;;;;;5.57;100.00;99392.59;4193103;28;20318;-50
2024/01/23 04:25:01;;;;;;;7.05;2.08;;;;;;;5.60;100.00;99394.09;4194869;28;20215;-53
2024/01/23 04:27:04;;;;;;;5.25;1.65;;;;;;;5.59;100.00;99404.13;4187758;28;20204;-50
2024/01/23 04:29:06;;;;;;;2.45;1.88;;;;;;;5.63;100.00;99399.97;4172125;28;20277;-50
2024/01/23 04:31:08;;;;;;;3.38;1.50;;;;;;;5.60;100.00;99404.94;4187141;28;20204;-53
2024/01/23 04:33:09;;;;;;;1.48;1.38;;;;;;;5.60;100.00;99407.66;4194432;28;21190;-50
2024/01/23 04:35:14;;;;;;;9.10;2.10;;;;;;;5.61;100.00;99395.78;4191057;28;20229;-51
2024/01/23 04:37:16;;;;;;;1.35;1.30;;;;;;;5.62;100.00;99398.28;4194400;28;20897;-50
2024/01/23 04:39:21;;;;;;;32.33;2.72;;;;;;;5.68;100.00;99402.09;4189933;28;20753;-49
2024/01/23 04:41:24;;;;;;;6.47;1.42;;;;;;;5.64;100.00;99389.97;4191938;28;20234;-51
2024/01/23 04:43:26;;;;;;;3.33;2.88;;;;;;;5.65;100.00;99387.06;4189290;28;20239;-51
2024/01/23 04:45:28;;;;;;;5.18;2.13;;;;;;;5.59;100.00;99393.28;4186861;28;20199;-49
2024/01/23 04:47:29;;;;;;;1.35;1.23;;;;;;;5.59;100.00;99377.00;4171096;28;20604;-50
2024/01/23 04:49:31;;;;;;;1.60;1.40;;;;;;;5.58;100.00;99386.16;4188920;28;20779;-51
2024/01/23 04:51:33;;;;;;;0.90;0.90;;;;;;;5.54;100.00;99389.44;4190299;28;20208;-50
2024/01/23 04:53:35;;;;;;;7.80;1.42;;;;;;;5.46;100.00;99395.03;4202232;28;20256;-49
2024/01/23 04:55:37;;;;;;;4.57;1.73;;;;;;;5.44;100.00;99399.81;4191072;28;20619;-52
2024/01/23 04:57:38;;;;;;;1.35;1.25;;;;;;;5.43;100.00;99398.16;4189632;28;20664;-52
2024/01/23 04:59:40;;;;;;;7.30;2.85;;;;;;;5.43;100.00;99387.28;4189520;28;20230;-53
2024/01/23 05:01:42;;;;;;;2.85;1.95;;;;;;;5.40;100.00;99395.81;4188793;28;20211;-52
2024/01/23 05:03:44;;;;;;;13.63;1.90;;;;;;;5.35;100.00;99390.97;4186356;28;20207;-50
2024/01/23 05:05:46;;;;;;;3.35;1.85;;;;;;;5.32;100.00;99404.09;4187591;28;20218;-50
2024/01/23 05:07:47;;;;;;;0.98;0.98;;;;;;;5.37;100.00;99426.88;4189216;28;20877;-51
2024/01/23 05:09:49;;;;;;;1.10;1.02;;;;;;;5.39;100.00;99432.13;4187785;28;20231;-52
2024/01/23 05:11:51;;;;;;;1.38;1.23;;;;;;;5.34;100.00;99440.84;4187855;28;20230;-52
2024/01/23 05:13:53;;;;;;;1.45;1.35;;;;;;;5.33;100.00;99441.91;4191583;28;20207;-50
2024/01/23 05:15:54;;;;;;;1.42;1.42;;;;;;;5.29;100.00;99446.03;4188564;28;20218;-51
2024/01/23 05:17:56;;;;;;;1.30;1.20;;;;;;;5.30;100.00;99444.16;4188688;28;20203;-50
2024/01/23 05:19:59;;;;;;;3.60;1.95;;;;;;;5.28;100.00;99449.78;4187270;28;20589;-50
2024/01/23 05:22:00;;;;;;;3.65;1.77;;;;;;;5.30;100.00;99453.13;4203999;28;20653;-51
2024/01/23 05:24:02;;;;;;;1.85;1.70;;;;;;;5.35;100.00;99455.28;4206044;28;20213;-52
2024/01/23 05:26:04;;;;;;;2.13;1.50;;;;;;;5.33;100.00;99457.31;4174165;28;20704;-49
2024/01/23 05:28:06;;;;;;;0.90;0.85;;;;;;;5.30;100.00;99465.88;4190734;28;20202;-54
2024/01/23 05:30:08;;;;;;;1.45;0.98;;;;;;;5.26;100.00;99459.13;4203641;28;20700;-49
2024/01/23 05:32:10;;;;;;;1.25;1.02;;;;;;;5.25;100.00;99465.59;4187334;28;20304;-50
2024/01/23 05:34:11;;;;;;;1.67;1.67;;;;;;;5.28;100.00;99470.63;4203625;28;20722;-50
2024/01/23 05:36:13;;;;;;;0.95;0.95;;;;;;;5.27;100.00;99474.38;4201745;28;20226;-51
2024/01/23 05:38:15;;;;;;;0.80;0.80;;;;;;;5.28;100.00;99481.47;4190311;28;20569;-51
2024/01/23 05:40:18;;;;;;;2.70;1.90;;;;;;;5.23;100.00;99486.66;4186408;28;20210;-51
2024/01/23 05:42:20;;;;;;;0.85;0.77;;;;;;;5.16;100.00;99497.44;4202615;28;20891;-56
2024/01/23 05:44:22;;;;;;;1.08;1.00;;;;;;;5.31;100.00;99510.97;4190791;28;20207;-50
2024/01/23 05:46:23;;;;;;;4.13;1.40;;;;;;;5.24;100.00;99510.03;4188288;28;20723;-52
2024/01/23 05:48:25;;;;;;;0.93;0.93;;;;;;;5.19;100.00;99515.19;4204749;28;20245;-54
2024/01/23 05:50:27;;;;;;;3.28;1.65;;;;;;;5.15;100.00;99509.31;4202443;28;20223;-50
2024/01/23 05:52:28;;;;;;;3.20;1.50;;;;;;;5.14;100.00;99517.63;4192298;28;20218;-50
2024/01/23 05:54:30;;;;;;;5.28;1.42;;;;;;;5.16;100.00;99529.16;4191258;28;20288;-52
2024/01/23 05:56:32;;;;;;;2.50;2.40;;;;;;;5.09;100.00;99529.06;4183087;28;20326;-50
2024/01/23 05:58:33;;;;;;;2.10;1.23;;;;;;;5.10;100.00;99532.63;4182775;28;20247;-53
2024/01/23 06:00:35;;;;;;;4.20;1.77;;;;;;;5.02;100.00;99530.03;4184858;28;20688;-52
2024/01/23 06:02:37;;;;;;;1.88;1.20;;;;;;;5.06;100.00;99538.63;4184327;28;20655;-50
2024/01/23 06:04:39;;;;;;;1.45;1.40;;;;;;;5.03;100.00;99541.72;4186497;28;20203;-51
2024/01/23 06:06:41;;;;;;;2.83;2.20;;;;;;;5.00;100.00;99537.50;4187800;28;20838;-54
2024/01/23 06:08:43;;;;;;;3.35;1.27;;;;;;;5.00;100.00;99548.34;4187643;28;20277;-51
2024/01/23 06:10:45;;;;;;;4.32;0.93;;;;;;;5.06;100.00;99553.03;4185327;28;20223;-50
2024/01/23 06:12:47;;;;;;;1.23;1.00;;;;;;;5.07;100.00;99560.13;4182625;28;20238;-50
2024/01/23 06:14:48;;;;;;;7.20;1.40;;;;;;;5.07;100.00;99560.13;4191183;28;20203;-50
2024/01/23 06:16:50;;;;;;;2.00;1.20;;;;;;;5.01;100.00;99560.88;4185994;28;20203;-53
2024/01/23 06:18:52;;;;;;;7.55;1.50;;;;;;;4.98;100.00;99563.97;4186419;28;20215;-53
2024/01/23 06:20:54;;;;;;;1.60;1.50;;;;;;;4.99;100.00;99556.69;4182551;28;20298;-52
2024/01/23 06:22:56;;;;;;;5.32;0.95;;;;;;;5.01;100.00;99554.63;4184936;28;20308;-50
2024/01/23 06:25:05;;;;;;;1.42;1.27;;;;;;;4.98;100.00;99555.84;4190756;28;20442;-50
2024/01/23 06:27:07;;;;;;;1.15;0.90;;;;;;;4.99;100.00;99551.28;4183336;28;20272;-53
2024/01/23 06:29:09;;;;;;;6.75;1.70;;;;;;;5.01;100.00;99560.88;4183860;28;20353;-52
2024/01/23 06:31:10;;;;;;;3.65;1.60;;;;;;;5.03;100.00;99557.97;4189605;28;20324;-54
2024/01/23 06:33:12;;;;;;;3.13;1.00;;;;;;;4.97;100.00;99578.56;4185996;28;20238;-51
2024/01/23 06:35:14;;;;;;;3.85;1.92;;;;;;;4.93;100.00;99590.81;4185570;28;20257;-54
2024/01/23 06:37:16;;;;;;;9.65;3.17;;;;;;;4.96;100.00;99593.16;4201257;28;20218;-53
2024/01/23 06:39:18;;;;;;;1.45;1.35;;;;;;;4.96;100.00;99605.88;4200823;28;20208;-50
2024/01/23 06:41:20;;;;;;;1.23;1.13;;;;;;;4.97;100.00;99608.41;4187073;28;20662;-51
2024/01/23 06:43:21;;;;;;;1.63;1.50;;;;;;;4.98;100.00;99620.94;4203893;28;20261;-52
2024/01/23 06:45:23;;;;;;;1.35;1.25;;;;;;;4.99;100.00;99628.03;4193815;28;20215;-50
2024/01/23 06:47:25;;;;;;;1.63;1.52;;;;;;;4.98;100.00;99631.78;4185146;28;20684;-52
2024/01/23 06:49:27;;;;;;;10.02;1.90;;;;;;;5.02;100.00;99637.69;4187416;28;20212;-50
2024/01/23 06:51:29;;;;;;;2.13;1.92;;;;;;;5.01;100.00;99650.38;4183598;28;20212;-50
2024/01/23 06:53:30;;;;;;;1.58;1.40;;;;;;;4.95;100.00;99653.88;4185966;28;20305;-50
2024/01/23 06:55:32;;;;;;;1.35;1.25;;;;;;;4.95;100.00;99659.28;4174965;28;20204;-53
2024/01/23 06:57:34;;;;;;;8.27;2.15;;;;;;;4.99;100.00;99666.00;4189531;28;20217;-54
2024/01/23 06:59:35;;;;;;;1.77;1.10;;;;;;;4.87;100.00;99667.50;4189146;28;20647;-50
2024/01/23 07:01:37;;;;;;;3.15;1.30;;;;;;;4.99;100.00;99681.47;4189864;28;20207;-52
2024/01/23 07:03:40;;;;;;;13.35;1.20;;;;;;;5.05;100.00;99684.25;4188891;28;20245;-50
2024/01/23 07:05:42;;;;;;;1.70;1.42;;;;;;;5.05;100.00;99692.38;4188291;28;20203;-50
2024/01/23 07:07:43;;;;;;;1.73;1.55;;;;;;;5.09;100.00;99699.13;4189003;28;20235;-50
2024/01/23 07:09:45;;;;;;;1.63;1.58;;;;;;;5.20;100.00;99699.50;4187623;28;20277;-50
2024/01/23 07:11:47;;;;;;;4.88;1.38;;;;;;;5.14;100.00;99702.09;4188837;28;20290;-50
2024/01/23 07:13:52;;;;;;;5.90;0.85;;;;;;;5.18;100.00;99698.84;4187888;28;20199;-49
2024/01/23 07:15:54;;;;;;;4.97;1.52;;;;;;;5.20;100.00;99701.38;4189978;28;20212;-49
2024/01/23 07:17:56;;;;;;;1.95;1.10;;;;;;;5.17;100.00;99701.75;4190765;28;20212;-49
2024/01/23 07:19:58;;;;;;;2.58;1.48;;;;;;;5.19;100.00;99710.53;4200915;28;20203;-49
2024/01/23 07:22:00;;;;;;;1.55;1.40;;;;;;;5.18;100.00;99715.13;4188155;28;20629;-50
2024/01/23 07:24:02;;;;;;;2.60;1.33;;;;;;;5.21;100.00;99714.75;4190928;28;20676;-50
2024/01/23 07:26:04;;;;;;;1.27;1.17;;;;;;;5.22;100.00;99721.03;4187860;28;20242;-51
2024/01/23 07:28:06;;;;;;;3.60;1.38;;;;;;;5.28;100.00;99726.53;4202831;28;20546;-50
2024/01/23 07:30:26;;;;;;;1.23;1.20;;;;;;;5.23;100.00;99728.13;4194219;28;20266;-51
2024/01/23 07:32:27;;;;;;;2.15;1.83;;;;;;;5.18;100.00;99727.84;4186109;28;21012;-52
2024/01/23 07:34:29;;;;;;;1.67;1.60;;;;;;;5.22;100.00;99737.31;4192688;28;20680;-50
2024/01/23 07:36:31;;;;;;;1.23;1.20;;;;;;;5.14;100.00;99729.25;4171897;28;20221;-50
2024/01/23 07:38:33;;;;;;;1.65;1.52;;;;;;;5.12;100.00;99742.16;4189630;28;20744;-54
2024/01/23 07:40:34;;;;;;;2.78;1.80;;;;;;;5.18;100.00;99741.41;4187015;28;20207;-50
2024/01/23 07:42:36;;;;;;;1.02;1.02;;;;;;;5.21;100.00;99738.31;4199011;28;20303;-50
2024/01/23 07:44:39;;;;;;;6.95;1.63;;;;;;;5.19;100.00;99748.53;4186650;28;20203;-50
2024/01/23 07:46:41;;;;;;;0.80;0.80;;;;;;;5.16;100.00;99746.19;4188944;28;20249;-53
2024/01/23 07:48:42;;;;;;;2.20;2.10;;;;;;;5.13;100.00;99743.84;4188355;28;20212;-50
2024/01/23 07:50:44;;;;;;;4.00;1.58;;;;;;;5.20;100.00;99751.06;4186011;28;20231;-53
2024/01/23 07:52:47;;;;;;;1.83;1.73;;;;;;;5.22;100.00;99759.03;4184395;28;20689;-51
2024/01/23 07:54:52;;;;;;;1.80;1.67;;;;;;;5.28;100.00;99741.97;4177794;28;20566;-51
2024/01/23 07:57:04;;;;;;;1.05;0.95;;;;;;;5.30;100.00;99745.34;4192612;28;20234;-52
2024/01/23 07:59:09;;;;;;;1.70;1.65;;;;;;;5.35;100.00;99756.50;4189365;28;20198;-51
2024/01/23 08:01:11;;;;;;;2.28;1.98;;;;;;;5.33;100.00;99761.25;4187590;28;20278;-54
2024/01/23 08:03:13;;;;;;;7.95;2.15;;;;;;;5.25;100.00;99759.50;4194779;28;20685;-51
2024/01/23 08:05:15;;;;;;;1.23;1.17;;;;;;;5.32;100.00;99765.00;4186299;28;20234;-53
2024/01/23 08:07:18;;;;;;;9.18;1.65;;;;;;;5.27;100.00;99757.44;4172597;28;20236;-50
2024/01/23 08:09:20;;;;;;;4.80;1.65;;;;;;;5.22;100.00;99775.31;4187796;28;20294;-50
2024/01/23 08:11:22;;;;;;;1.45;1.27;;;;;;;5.23;100.00;99771.56;4168020;28;20920;-51
2024/01/23 08:13:28;;;;;;;1.58;1.52;;;;;;;5.30;100.00;99775.22;4188617;28;20601;-53
2024/01/23 08:15:30;;;;;;;1.00;1.00;;;;;;;5.43;100.00;99778.13;4189890;28;20206;-51
2024/01/23 08:17:32;;;;;;;3.13;2.05;;;;;;;5.71;100.00;99781.84;4190514;28;20245;-51
2024/01/23 08:19:40;;;;;;;6.53;2.20;;;;;;;5.91;100.00;99783.00;4201207;28;20658;-50
2024/01/23 08:21:45;;;;;;;1.75;1.42;;;;;;;5.95;100.00;99795.19;4176224;28;20221;-50
2024/01/23 08:23:47;;;;;;;6.63;2.42;;;;;;;6.05;100.00;99790.28;4189652;28;20195;-51
2024/01/23 08:25:49;;;;;;;2.40;1.83;;;;;;;5.98;100.00;99779.34;4189530;28;20199;-51
2024/01/23 08:27:51;;;;;;;1.65;1.55;;;;;;;5.82;100.00;99786.84;4207133;28;20286;-51
2024/01/23 08:29:55;;;;;;;1.42;1.33;;;;;;;5.68;100.00;99785.78;4201853;28;20210;-50
2024/01/23 08:32:10;;;;;;;5.90;0.90;;;;;;;5.67;100.00;99792.25;4175432;28;20664;-51
2024/01/23 08:34:15;;;;;;;1.77;1.67;;;;;;;5.61;100.00;99803.84;4203174;28;20306;-51
2024/01/23 08:36:20;;;;;;;1.65;1.55;;;;;;;5.60;100.00;99799.47;4190486;28;20207;-50
2024/01/23 08:38:22;;;;;;;1.83;1.73;;;;;;;5.62;100.00;99796.56;4188322;28;20264;-50
2024/01/23 08:40:24;;;;;;;1.70;1.60;;;;;;;5.65;100.00;99804.31;4191961;28;20542;-51
2024/01/23 08:42:27;;;;;;;7.68;1.90;;;;;;;5.67;100.00;99821.25;4167875;28;20232;-52
2024/01/23 08:44:36;;;;;;;2.80;2.58;;;;;;;5.72;100.00;99829.69;4171860;28;20669;-51
2024/01/23 08:46:40;;;;;;;1.85;1.75;;;;;;;5.85;100.00;99824.47;4202290;28;20202;-53
2024/01/23 08:48:41;;;;;;;1.63;1.25;;;;;;;5.78;100.00;99820.81;4172488;28;20255;-54
2024/01/23 08:50:43;;;;;;;1.58;1.48;;;;;;;5.82;100.00;99833.03;4203742;28;20306;-51
2024/01/23 08:52:49;;;;;;;1.88;1.30;;;;;;;5.82;100.00;99839.28;4189570;28;20312;-51
2024/01/23 08:55:02;;;;;;;1.60;1.50;;;;;;;5.82;100.00;99833.84;4192303;28;20231;-50
2024/01/23 08:57:09;;;;;;;0.82;0.82;;;;;;;5.89;100.00;99833.97;4182107;28;20295;-53
2024/01/23 08:59:15;;;;;;;5.75;1.45;;;;;;;5.95;100.00;99847.63;4195529;28;20222;-53
2024/01/23 09:01:17;;;;;;;1.50;1.40;;;;;;;6.04;100.00;99843.75;4207002;28;20191;-51
2024/01/23 09:03:19;;;;;;;4.35;2.65;;;;;;;6.05;100.00;99839.19;4188553;28;20315;-51
2024/01/23 09:05:21;;;;;;;1.85;1.75;;;;;;;6.06;100.00;99851.72;4192083;28;20200;-52
2024/01/23 09:07:22;;;;;;;1.77;1.67;;;;;;;6.28;100.00;99856.22;4192422;28;20576;-51
2024/01/23 09:09:24;;;;;;;9.98;1.77;;;;;;;6.38;100.00;99856.75;4171617;28;20204;-51
2024/01/23 09:11:26;;;;;;;2.33;2.17;;;;;;;6.42;100.00;99858.88;4194251;28;20226;-51
2024/01/23 09:13:35;;;;;;;8.60;2.05;;;;;;;6.58;100.00;99865.97;4194220;28;20589;-51
2024/01/23 09:15:37;;;;;;;3.92;1.52;;;;;;;6.78;100.00;99859.75;4189587;28;20570;-50
2024/01/23 09:17:39;;;;;;;12.32;1.27;;;;;;;7.05;100.00;99864.41;4187399;28;20215;-50
2024/01/23 09:19:44;;;;;;;4.13;2.38;;;;;;;7.28;100.00;99869.66;4187769;28;20329;-51
2024/01/23 09:21:48;;;;;;;6.93;2.58;;;;;;;7.66;100.00;99876.44;4189290;28;20199;-51
2024/01/23 09:23:52;;;;;;;1.38;1.27;;;;;;;8.03;100.00;99884.25;4189757;28;20219;-51
2024/01/23 09:25:55;;;;;;;7.97;1.42;;;;;;;7.71;100.00;99893.03;4191859;28;20207;-52
2024/01/23 09:27:57;;;;;;;1.90;1.80;;;;;;;7.83;100.00;99894.19;4175781;28;20200;-51
2024/01/23 09:29:59;;;;;;;6.72;1.45;;;;;;;7.93;100.00;99906.41;4193018;28;20210;-49
2024/01/23 09:32:01;;;;;;;3.92;1.63;;;;;;;7.75;100.00;99913.41;4204108;28;20231;-49
2024/01/23 09:34:03;;;;;;;1.60;1.50;;;;;;;7.42;100.00;99901.41;4204025;28;20210;-49
2024/01/23 09:36:05;;;;;;;2.78;1.88;;;;;;;7.35;100.00;99908.66;4175586;28;20247;-49